Time;durP1;ratioP1;P1;durP2;ratioP2;P2;SDS_P1;SDS_P2;PMS_P1;PMS_P2;Temp;Humidity;BMP_temperature;BMP_pressure;BME280_temperature;BME280_humidity;BME280_pressure;Samples;Min_cycle;Max_cycle;Signal;HPM_P1;HPM_P2
2023/11/03 00:01:58;;;;;;;;;;;;;;;6.25;58.32;99596.59;4867032;29;19931;-70
2023/11/03 00:04:23;;;;;;;;;;;;;;;6.21;58.44;99597.41;4869816;29;19928;-70
2023/11/03 00:06:49;;;;;;;;;;;;;;;6.25;58.28;99602.63;4854082;29;19924;-70
2023/11/03 00:09:15;;;;;;;;;;;;;;;6.24;58.30;99600.03;4873639;29;20096;-71
2023/11/03 00:11:41;;;;;;;;;;;;;;;6.28;58.62;99594.03;4871463;29;19923;-70
2023/11/03 00:14:07;;;;;;;;;;;;;;;6.28;58.59;99600.06;4847942;29;19928;-72
2023/11/03 00:16:33;;;;;;;;;;;;;;;6.30;58.42;99603.50;4840647;29;20387;-72
2023/11/03 00:19:00;;;;;;;;;;;;;;;6.26;58.37;99599.19;4840040;29;20413;-72
2023/11/03 00:21:27;;;;;;;;;;;;;;;6.29;58.17;99604.34;4854114;29;19935;-70
2023/11/03 00:23:53;;;;;;;;;;;;;;;6.33;58.64;99613.84;4855059;29;19956;-70
2023/11/03 00:26:18;;;;;;;;;;;;;;;6.34;58.45;99612.16;4854762;29;19923;-72
2023/11/03 00:28:49;;;;;;;;;;;;;;;6.32;57.99;99609.53;4870609;29;19934;-71
2023/11/03 00:31:18;;;;;;;;;;;;;;;6.36;58.37;99612.16;4871580;29;20012;-73
2023/11/03 00:33:44;;;;;;;;;;;;;;;6.40;58.33;99622.50;4871336;29;19935;-70
2023/11/03 00:36:10;;;;;;;;;;;;;;;6.41;58.13;99618.22;4870450;29;19930;-70
2023/11/03 00:38:36;;;;;;;;;;;;;;;6.39;57.66;99625.97;4870688;29;19935;-70
2023/11/03 00:41:02;;;;;;;;;;;;;;;6.32;57.96;99637.13;4855489;29;19923;-75
2023/11/03 00:43:28;;;;;;;;;;;;;;;6.27;58.33;99626.78;4870682;29;19924;-74
2023/11/03 00:45:54;;;;;;;;;;;;;;;6.23;57.70;99629.31;4866816;29;19924;-70
2023/11/03 00:48:22;;;;;;;;;;;;;;;6.20;57.99;99632.75;4839605;29;19943;-75
2023/11/03 00:50:48;;;;;;;;;;;;;;;6.17;57.77;99643.94;4870791;29;19943;-71
2023/11/03 00:53:14;;;;;;;;;;;;;;;6.15;57.99;99640.47;4873040;29;20023;-71
2023/11/03 00:55:39;;;;;;;;;;;;;;;6.15;57.95;99647.34;4855077;29;19959;-71
2023/11/03 00:58:05;;;;;;;;;;;;;;;6.14;57.92;99643.91;4872251;29;20063;-70
2023/11/03 01:00:35;;;;;;;;;;;;;;;6.08;57.43;99648.16;4873097;29;19935;-71
2023/11/03 01:03:01;;;;;;;;;;;;;;;6.01;57.97;99655.88;4855698;29;19930;-72
2023/11/03 01:05:28;;;;;;;;;;;;;;;5.98;58.31;99653.22;4847167;29;19924;-72
2023/11/03 01:07:54;;;;;;;;;;;;;;;5.94;58.03;99654.06;4870010;29;19923;-72
2023/11/03 01:10:22;;;;;;;;;;;;;;;5.92;57.91;99650.59;4870659;29;19930;-73
2023/11/03 01:12:50;;;;;;;;;;;;;;;5.86;57.71;99658.28;4853513;29;19924;-72
2023/11/03 01:15:19;;;;;;;;;;;;;;;5.83;57.99;99659.13;4872819;29;19928;-71
2023/11/03 01:17:49;;;;;;;;;;;;;;;5.81;58.22;99663.41;4859290;29;20676;-70
2023/11/03 01:20:19;;;;;;;;;;;;;;;5.82;57.75;99664.31;4869634;29;19924;-70
2023/11/03 01:22:48;;;;;;;;;;;;;;;5.80;57.73;99666.00;4854562;29;19928;-70
2023/11/03 01:25:17;;;;;;;;;;;;;;;5.79;58.20;99661.69;4866925;29;19939;-70
2023/11/03 01:27:44;;;;;;;;;;;;;;;5.75;57.96;99665.09;4854539;29;19938;-70
2023/11/03 01:30:11;;;;;;;;;;;;;;;5.72;57.86;99664.22;4853589;29;19927;-70
2023/11/03 01:32:36;;;;;;;;;;;;;;;5.75;57.71;99668.53;4839230;29;20377;-70
2023/11/03 01:35:02;;;;;;;;;;;;;;;5.77;57.68;99677.16;4855730;29;20027;-70
2023/11/03 01:37:29;;;;;;;;;;;;;;;5.83;58.46;99671.19;4853829;29;19991;-70
2023/11/03 01:39:56;;;;;;;;;;;;;;;5.83;58.09;99671.19;4854310;29;19980;-71
2023/11/03 01:42:22;;;;;;;;;;;;;;;5.81;57.75;99678.91;4872680;29;20339;-70
2023/11/03 01:44:47;;;;;;;;;;;;;;;5.75;58.28;99676.28;4871937;29;20410;-70
2023/11/03 01:47:13;;;;;;;;;;;;;;;5.70;57.80;99683.97;4859144;29;20268;-71
2023/11/03 01:49:39;;;;;;;;;;;;;;;5.69;58.32;99678.81;4860370;29;19930;-70
2023/11/03 01:52:05;;;;;;;;;;;;;;;5.64;57.47;99677.91;4853946;29;20686;-69
2023/11/03 01:54:32;;;;;;;;;;;;;;;5.56;58.16;99683.84;4870159;29;19962;-70
2023/11/03 01:56:58;;;;;;;;;;;;;;;5.50;57.63;99676.06;4870598;29;19934;-71
2023/11/03 01:59:24;;;;;;;;;;;;;;;5.54;58.36;99684.69;4857826;29;19963;-70
2023/11/03 02:01:51;;;;;;;;;;;;;;;5.52;58.18;99691.56;4858529;29;20315;-70
2023/11/03 02:04:19;;;;;;;;;;;;;;;5.50;58.16;99695.84;4857797;29;20397;-70
2023/11/03 02:06:45;;;;;;;;;;;;;;;5.42;58.01;99698.34;4853585;29;20719;-68
2023/11/03 02:09:11;;;;;;;;;;;;;;;5.33;58.53;99706.84;4856706;29;19931;-67
2023/11/03 02:11:42;;;;;;;;;;;;;;;5.27;58.40;99712.81;4875577;29;19923;-67
2023/11/03 02:14:08;;;;;;;;;;;;;;;5.25;58.17;99716.22;4874667;29;20029;-68
2023/11/03 02:16:35;;;;;;;;;;;;;;;5.21;58.41;99727.34;4856456;29;20411;-67
2023/11/03 02:19:03;;;;;;;;;;;;;;;5.21;58.64;99719.59;4874866;29;19956;-69
2023/11/03 02:21:35;;;;;;;;;;;;;;;5.24;58.27;99723.09;4872336;29;20015;-69
2023/11/03 02:24:00;;;;;;;;;;;;;;;5.25;58.19;99723.94;4857796;29;19932;-69
2023/11/03 02:26:26;;;;;;;;;;;;;;;5.24;58.22;99722.22;4841950;29;19974;-70
2023/11/03 02:28:52;;;;;;;;;;;;;;;5.22;58.72;99731.66;4872776;29;19924;-71
2023/11/03 02:31:18;;;;;;;;;;;;;;;5.20;58.80;99725.59;4857386;29;19992;-71
2023/11/03 02:33:44;;;;;;;;;;;;;;;5.20;58.57;99731.66;4857428;29;19935;-71
2023/11/03 02:36:10;;;;;;;;;;;;;;;5.19;58.94;99729.03;4871981;29;19928;-67
2023/11/03 02:38:36;;;;;;;;;;;;;;;5.17;58.32;99721.28;4841604;29;19935;-69
2023/11/03 02:41:03;;;;;;;;;;;;;;;5.18;58.89;99735.94;4872639;29;20311;-69
2023/11/03 02:43:29;;;;;;;;;;;;;;;5.22;58.44;99736.81;4845018;29;19935;-69
2023/11/03 02:45:55;;;;;;;;;;;;;;;5.26;58.60;99738.59;4857309;29;19923;-68
2023/11/03 02:48:22;;;;;;;;;;;;;;;5.31;58.39;99734.34;4841486;29;20295;-67
2023/11/03 02:50:48;;;;;;;;;;;;;;;5.27;58.39;99737.75;4845843;29;19931;-68
2023/11/03 02:53:14;;;;;;;;;;;;;;;5.24;58.67;99740.28;4857592;29;19927;-68
2023/11/03 02:55:39;;;;;;;;;;;;;;;5.23;58.04;99742.00;4856576;29;19948;-67
2023/11/03 02:58:06;;;;;;;;;;;;;;;5.24;58.82;99742.88;4855387;29;19928;-68
2023/11/03 03:00:32;;;;;;;;;;;;;;;5.19;58.71;99739.34;4856278;29;19924;-68
2023/11/03 03:02:59;;;;;;;;;;;;;;;5.16;58.16;99744.50;4874589;29;19999;-67
2023/11/03 03:05:24;;;;;;;;;;;;;;;5.11;58.81;99737.56;4853122;29;19967;-67
2023/11/03 03:07:50;;;;;;;;;;;;;;;5.15;58.48;99733.31;4855994;29;20393;-67
2023/11/03 03:10:16;;;;;;;;;;;;;;;5.13;58.08;99738.47;4871527;29;19934;-67
2023/11/03 03:12:42;;;;;;;;;;;;;;;5.16;58.54;99744.50;4856750;29;19930;-67
2023/11/03 03:15:11;;;;;;;;;;;;;;;5.12;58.60;99749.63;4862425;29;20044;-68
2023/11/03 03:17:36;;;;;;;;;;;;;;;5.12;59.04;99753.91;4852037;29;20276;-66
2023/11/03 03:20:06;;;;;;;;;;;;;;;5.11;58.63;99758.19;4874088;29;19928;-67
2023/11/03 03:22:32;;;;;;;;;;;;;;;5.08;58.49;99760.75;4874656;29;19952;-70
2023/11/03 03:24:57;;;;;;;;;;;;;;;5.04;58.14;99755.53;4873969;29;19924;-70
2023/11/03 03:27:23;;;;;;;;;;;;;;;5.01;58.28;99760.66;4869556;29;20303;-70
2023/11/03 03:29:49;;;;;;;;;;;;;;;4.93;58.18;99758.81;4873220;29;19943;-69
2023/11/03 03:32:15;;;;;;;;;;;;;;;4.90;59.23;99761.34;4871921;29;19934;-67
2023/11/03 03:34:41;;;;;;;;;;;;;;;4.79;58.49;99739.72;4856265;29;20403;-69
2023/11/03 03:37:07;;;;;;;;;;;;;;;4.95;58.32;99780.34;4866927;29;19927;-69
2023/11/03 03:39:32;;;;;;;;;;;;;;;4.94;58.50;99778.59;4873642;29;19931;-69
2023/11/03 03:41:58;;;;;;;;;;;;;;;4.97;58.87;99780.34;4841826;29;20028;-68
2023/11/03 03:44:24;;;;;;;;;;;;;;;5.00;58.94;99776.97;4874858;29;19931;-67
2023/11/03 03:46:51;;;;;;;;;;;;;;;5.02;58.60;99783.00;4866582;29;20383;-68
2023/11/03 03:49:17;;;;;;;;;;;;;;;5.02;58.64;99790.75;4873750;29;19990;-69
2023/11/03 03:51:43;;;;;;;;;;;;;;;5.04;59.17;99786.47;4855495;29;19931;-68
2023/11/03 03:54:09;;;;;;;;;;;;;;;5.04;58.63;99786.47;4871466;29;19927;-70
2023/11/03 03:56:34;;;;;;;;;;;;;;;4.98;58.54;99792.41;4870564;29;19927;-68
2023/11/03 03:59:00;;;;;;;;;;;;;;;4.89;58.66;99789.72;4855791;29;20386;-69
2023/11/03 04:01:26;;;;;;;;;;;;;;;4.81;57.88;99790.47;4840178;29;19983;-69
2023/11/03 04:03:52;;;;;;;;;;;;;;;4.75;58.82;99792.94;4874185;29;19932;-69
2023/11/03 04:06:18;;;;;;;;;;;;;;;4.76;58.88;99799.81;4839977;29;19930;-68
2023/11/03 04:08:43;;;;;;;;;;;;;;;4.81;59.31;99805.06;4855272;29;20394;-68
2023/11/03 04:11:12;;;;;;;;;;;;;;;4.77;58.54;99808.44;4845303;29;19928;-69
2023/11/03 04:13:38;;;;;;;;;;;;;;;4.73;59.36;99812.69;4871138;29;20450;-69
2023/11/03 04:16:06;;;;;;;;;;;;;;;4.67;59.22;99825.50;4873350;29;19924;-70
2023/11/03 04:18:32;;;;;;;;;;;;;;;4.65;59.32;99830.59;4871091;29;19924;-67
2023/11/03 04:20:58;;;;;;;;;;;;;;;4.68;59.34;99835.81;4848918;29;19927;-68
2023/11/03 04:23:24;;;;;;;;;;;;;;;4.71;59.33;99837.59;4871983;29;19980;-67
2023/11/03 04:25:53;;;;;;;;;;;;;;;4.71;59.56;99844.44;4870273;29;20488;-67
2023/11/03 04:28:19;;;;;;;;;;;;;;;4.73;59.46;99842.75;4870473;29;20398;-68
2023/11/03 04:30:45;;;;;;;;;;;;;;;4.74;58.99;99844.50;4871052;29;19927;-69
2023/11/03 04:33:12;;;;;;;;;;;;;;;4.72;58.96;99853.91;4855494;29;20385;-69
2023/11/03 04:35:38;;;;;;;;;;;;;;;4.67;59.22;99851.25;4873915;29;19923;-69
2023/11/03 04:38:03;;;;;;;;;;;;;;;4.66;59.88;99854.69;4853647;29;19924;-68
2023/11/03 04:40:29;;;;;;;;;;;;;;;4.63;58.69;99857.22;4850264;29;19993;-69
2023/11/03 04:42:55;;;;;;;;;;;;;;;4.65;59.31;99851.22;4855282;29;19924;-69
2023/11/03 04:45:21;;;;;;;;;;;;;;;4.69;59.63;99862.47;4854829;29;19935;-68
2023/11/03 04:47:47;;;;;;;;;;;;;;;4.66;59.27;99859.84;4871605;29;20530;-67
2023/11/03 04:50:13;;;;;;;;;;;;;;;4.62;59.31;99870.94;4849269;29;20495;-68
2023/11/03 04:52:38;;;;;;;;;;;;;;;4.60;59.48;99868.34;4873059;29;19928;-68
2023/11/03 04:55:06;;;;;;;;;;;;;;;4.59;59.69;99870.88;4849498;29;20279;-69
2023/11/03 04:57:32;;;;;;;;;;;;;;;4.64;59.52;99874.41;4839349;29;20035;-70
2023/11/03 04:59:59;;;;;;;;;;;;;;;4.66;59.59;99880.47;4861249;29;19931;-69
2023/11/03 05:02:26;;;;;;;;;;;;;;;4.67;59.25;99884.78;4858764;29;20022;-68
2023/11/03 05:04:54;;;;;;;;;;;;;;;4.71;59.30;99886.56;4874539;29;19924;-69
2023/11/03 05:07:20;;;;;;;;;;;;;;;4.75;59.92;99885.75;4859624;29;19928;-69
2023/11/03 05:09:47;;;;;;;;;;;;;;;4.78;58.95;99890.97;4854104;29;19991;-69
2023/11/03 05:12:12;;;;;;;;;;;;;;;4.82;59.18;99891.91;4848880;29;20375;-69
2023/11/03 05:14:38;;;;;;;;;;;;;;;4.83;58.91;99894.50;4861416;29;19928;-69
2023/11/03 05:17:07;;;;;;;;;;;;;;;4.79;59.09;99890.13;4869802;29;21331;-68
2023/11/03 05:19:35;;;;;;;;;;;;;;;4.76;58.91;99900.38;4856480;29;19927;-71
2023/11/03 05:22:01;;;;;;;;;;;;;;;4.73;58.49;99892.63;4873142;29;20407;-70
2023/11/03 05:24:27;;;;;;;;;;;;;;;4.68;58.94;99892.53;4855275;29;20397;-68
2023/11/03 05:26:53;;;;;;;;;;;;;;;4.64;59.52;99900.19;4842555;29;20422;-68
2023/11/03 05:29:22;;;;;;;;;;;;;;;4.66;59.12;99895.94;4859576;29;19928;-70
2023/11/03 05:31:51;;;;;;;;;;;;;;;4.73;59.10;99900.34;4855978;29;19956;-69
2023/11/03 05:34:17;;;;;;;;;;;;;;;4.71;59.12;99899.47;4859035;29;19979;-69
2023/11/03 05:36:42;;;;;;;;;;;;;;;4.74;59.38;99899.50;4843730;29;20375;-68
2023/11/03 05:39:08;;;;;;;;;;;;;;;4.80;59.24;99904.75;4872347;29;19931;-70
2023/11/03 05:41:34;;;;;;;;;;;;;;;4.85;58.97;99909.13;4859552;29;19924;-71
2023/11/03 05:44:00;;;;;;;;;;;;;;;4.88;59.01;99904.00;4875511;29;19924;-72
2023/11/03 05:46:26;;;;;;;;;;;;;;;4.88;59.07;99909.16;4876680;29;20030;-71
2023/11/03 05:48:56;;;;;;;;;;;;;;;4.93;59.48;99910.97;4858718;29;20022;-71
2023/11/03 05:51:22;;;;;;;;;;;;;;;4.96;58.92;99905.88;4859225;29;20045;-70
2023/11/03 05:53:48;;;;;;;;;;;;;;;4.98;59.21;99911.03;4859088;29;20015;-71
2023/11/03 05:56:14;;;;;;;;;;;;;;;5.03;58.81;99906.81;4858581;29;20035;-68
2023/11/03 05:58:40;;;;;;;;;;;;;;;5.05;59.13;99918.03;4863637;29;20313;-67
2023/11/03 06:01:06;;;;;;;;;;;;;;;4.97;58.65;99915.34;4857852;29;19960;-67
2023/11/03 06:03:32;;;;;;;;;;;;;;;4.99;59.30;99920.50;4858004;29;20394;-68
2023/11/03 06:05:58;;;;;;;;;;;;;;;5.01;58.83;99925.72;4858036;29;19930;-68
2023/11/03 06:08:24;;;;;;;;;;;;;;;5.04;59.54;99918.03;4852655;29;19931;-71
2023/11/03 06:10:50;;;;;;;;;;;;;;;5.09;59.10;99917.25;4866340;29;19923;-73
2023/11/03 06:13:16;;;;;;;;;;;;;;;5.11;59.18;99918.16;4843670;29;19928;-71
2023/11/03 06:15:43;;;;;;;;;;;;;;;5.14;59.05;99917.31;4859172;29;19974;-72
2023/11/03 06:18:08;;;;;;;;;;;;;;;5.20;59.19;99914.81;4857625;29;20466;-71
2023/11/03 06:20:34;;;;;;;;;;;;;;;5.30;59.04;99917.56;4843659;29;20014;-70
2023/11/03 06:23:01;;;;;;;;;;;;;;;5.43;59.13;99912.56;4874322;29;20323;-72
2023/11/03 06:25:29;;;;;;;;;;;;;;;5.52;58.67;99924.72;4874986;29;20688;-71
2023/11/03 06:27:55;;;;;;;;;;;;;;;5.55;58.76;99919.59;4867838;29;19948;-72
2023/11/03 06:30:21;;;;;;;;;;;;;;;5.52;58.98;99927.31;4857210;29;19928;-71
2023/11/03 06:32:47;;;;;;;;;;;;;;;5.49;58.43;99934.16;4858183;29;19927;-70
2023/11/03 06:35:13;;;;;;;;;;;;;;;5.24;59.00;99910.56;4876057;29;19928;-71
2023/11/03 06:37:38;;;;;;;;;;;;;;;5.57;58.79;99948.91;4856867;29;19924;-71
2023/11/03 06:40:04;;;;;;;;;;;;;;;5.68;58.68;99945.59;4873168;29;19931;-71
2023/11/03 06:42:30;;;;;;;;;;;;;;;5.70;58.59;99952.50;4862843;29;19930;-71
2023/11/03 06:44:56;;;;;;;;;;;;;;;5.70;58.60;99943.91;4856166;29;19928;-72
2023/11/03 06:47:22;;;;;;;;;;;;;;;5.68;58.72;99951.63;4872871;29;19959;-72
2023/11/03 06:49:48;;;;;;;;;;;;;;;5.64;58.12;99949.84;4841863;29;19928;-74
2023/11/03 06:52:16;;;;;;;;;;;;;;;5.56;58.26;99948.88;4873723;29;19990;-75
2023/11/03 06:54:44;;;;;;;;;;;;;;;5.46;58.23;99962.50;4857773;29;19987;-75
2023/11/03 06:57:10;;;;;;;;;;;;;;;5.40;58.97;99963.28;4875020;29;20307;-73
2023/11/03 06:59:38;;;;;;;;;;;;;;;5.43;58.84;99974.50;4842525;29;20571;-73
2023/11/03 07:02:05;;;;;;;;;;;;;;;5.54;59.12;99974.66;4843052;29;19957;-73
2023/11/03 07:04:32;;;;;;;;;;;;;;;5.62;58.84;99974.81;4842020;29;19927;-72
2023/11/03 07:06:59;;;;;;;;;;;;;;;5.67;58.09;99983.44;4857752;29;19987;-71
2023/11/03 07:09:24;;;;;;;;;;;;;;;5.70;58.20;99980.91;4872512;29;19931;-70
2023/11/03 07:11:50;;;;;;;;;;;;;;;5.71;58.26;99981.81;4856743;29;19927;-71
2023/11/03 07:14:16;;;;;;;;;;;;;;;5.75;58.41;99982.69;4862716;29;19932;-72
2023/11/03 07:16:47;;;;;;;;;;;;;;;5.73;58.04;99986.13;4857460;29;19923;-73
2023/11/03 07:19:13;;;;;;;;;;;;;;;5.73;58.20;99986.13;4856666;29;19923;-77
2023/11/03 07:21:39;;;;;;;;;;;;;;;5.78;58.43;99985.34;4875019;29;20052;-71
2023/11/03 07:24:05;;;;;;;;;;;;;;;5.79;58.28;99989.66;4842231;29;20411;-71
2023/11/03 07:26:31;;;;;;;;;;;;;;;5.73;57.84;99996.47;4857030;29;19949;-69
2023/11/03 07:28:57;;;;;;;;;;;;;;;5.80;58.05;99996.56;4857443;29;20347;-72
2023/11/03 07:31:23;;;;;;;;;;;;;;;5.93;58.59;99980.38;4856636;29;19992;-71
2023/11/03 07:33:49;;;;;;;;;;;;;;;6.03;58.35;99986.53;4871833;29;20027;-72
2023/11/03 07:36:15;;;;;;;;;;;;;;;6.00;57.91;100000.31;4857264;29;19931;-71
2023/11/03 07:38:41;;;;;;;;;;;;;;;5.91;57.32;100000.13;4857094;29;20307;-70
2023/11/03 07:41:08;;;;;;;;;;;;;;;5.97;58.29;99996.75;4855733;29;20676;-68
2023/11/03 07:43:36;;;;;;;;;;;;;;;6.07;58.23;99997.81;4841335;29;20018;-70
2023/11/03 07:46:03;;;;;;;;;;;;;;;6.11;57.90;100007.31;4852846;29;19924;-68
2023/11/03 07:48:29;;;;;;;;;;;;;;;6.17;58.12;100008.28;4856146;29;19924;-68
2023/11/03 07:50:54;;;;;;;;;;;;;;;6.23;58.21;100006.59;4838055;29;19972;-69
2023/11/03 07:53:20;;;;;;;;;;;;;;;6.26;57.75;100012.69;4838669;29;19995;-70
2023/11/03 07:55:48;;;;;;;;;;;;;;;6.35;58.05;100023.97;4871748;29;21306;-69
2023/11/03 07:58:13;;;;;;;;;;;;;;;6.43;57.78;100024.94;4852724;29;19984;-69
2023/11/03 08:00:39;;;;;;;;;;;;;;;6.48;57.83;100028.44;4869435;29;19951;-72
2023/11/03 08:03:07;;;;;;;;;;;;;;;6.50;57.89;100031.03;4864215;29;19923;-68
2023/11/03 08:05:33;;;;;;;;;;;;;;;6.42;57.56;100029.22;4853593;29;19923;-68
2023/11/03 08:08:01;;;;;;;;;;;;;;;6.37;57.36;100037.78;4868763;29;20251;-68
2023/11/03 08:10:30;;;;;;;;;;;;;;;6.32;57.61;100038.59;4871067;29;19927;-69
2023/11/03 08:12:58;;;;;;;;;;;;;;;6.30;57.76;100049.75;4854624;29;19947;-69
2023/11/03 08:15:24;;;;;;;;;;;;;;;6.35;57.98;100042.06;4843175;29;20268;-68
2023/11/03 08:17:50;;;;;;;;;;;;;;;6.35;57.57;100048.13;4871157;29;20355;-69
2023/11/03 08:20:16;;;;;;;;;;;;;;;6.41;57.85;100040.41;4868214;29;20429;-67
2023/11/03 08:22:42;;;;;;;;;;;;;;;6.51;57.65;100038.81;4852336;29;19928;-67
2023/11/03 08:25:08;;;;;;;;;;;;;;;6.44;56.87;100042.19;4869789;29;20387;-67
2023/11/03 08:27:34;;;;;;;;;;;;;;;6.44;57.58;100048.19;4870086;29;19965;-67
2023/11/03 08:30:01;;;;;;;;;;;;;;;6.50;57.51;100050.03;4869846;29;20026;-68
2023/11/03 08:32:30;;;;;;;;;;;;;;;6.49;57.55;100050.88;4836563;29;20072;-69
2023/11/03 08:34:56;;;;;;;;;;;;;;;6.51;57.53;100053.47;4850542;29;19932;-68
2023/11/03 08:37:22;;;;;;;;;;;;;;;6.51;57.45;100056.91;4836125;29;19924;-69
2023/11/03 08:39:48;;;;;;;;;;;;;;;6.54;57.38;100054.34;4850110;29;20001;-68
2023/11/03 08:42:14;;;;;;;;;;;;;;;6.56;57.10;100059.56;4870342;29;19998;-68
2023/11/03 08:44:40;;;;;;;;;;;;;;;6.50;56.90;100060.38;4852898;29;19938;-67
2023/11/03 08:47:07;;;;;;;;;;;;;;;6.42;57.02;100051.63;4870872;29;20259;-69
2023/11/03 08:49:34;;;;;;;;;;;;;;;6.41;56.74;100057.66;4868286;29;19923;-75
2023/11/03 08:52:00;;;;;;;;;;;;;;;6.47;57.17;100058.59;4852556;29;19924;-68
2023/11/03 08:54:26;;;;;;;;;;;;;;;6.47;56.62;100055.16;4870614;29;19932;-70
2023/11/03 08:56:53;;;;;;;;;;;;;;;6.58;56.71;100057.88;4853016;29;20000;-70
2023/11/03 08:59:19;;;;;;;;;;;;;;;6.68;56.91;100053.66;4870611;29;19950;-71
2023/11/03 09:01:45;;;;;;;;;;;;;;;6.75;56.78;100047.69;4870437;29;20599;-70
2023/11/03 09:04:11;;;;;;;;;;;;;;;6.85;56.70;100049.53;4867145;29;19946;-70
2023/11/03 09:06:37;;;;;;;;;;;;;;;6.97;56.85;100058.25;4869355;29;19928;-70
2023/11/03 09:09:04;;;;;;;;;;;;;;;7.07;56.26;100057.50;4851804;29;20351;-71
2023/11/03 09:11:30;;;;;;;;;;;;;;;7.12;56.49;100058.41;4867615;29;19930;-71
2023/11/03 09:13:59;;;;;;;;;;;;;;;7.19;56.32;100059.34;4852320;29;20311;-72
2023/11/03 09:16:24;;;;;;;;;;;;;;;7.17;56.21;100055.88;4851987;29;20034;-70
2023/11/03 09:18:54;;;;;;;;;;;;;;;7.12;56.25;100062.72;4856388;29;21031;-72
2023/11/03 09:21:20;;;;;;;;;;;;;;;7.03;56.03;100068.66;4869712;29;19927;-73
2023/11/03 09:23:47;;;;;;;;;;;;;;;7.01;56.02;100066.09;4851393;29;20576;-71
2023/11/03 09:26:13;;;;;;;;;;;;;;;7.04;56.00;100070.41;4866492;29;19930;-71
2023/11/03 09:28:39;;;;;;;;;;;;;;;7.03;56.04;100066.09;4867186;29;19927;-71
2023/11/03 09:31:06;;;;;;;;;;;;;;;7.05;56.32;100078.19;4867370;29;20379;-70
2023/11/03 09:33:31;;;;;;;;;;;;;;;7.03;55.62;100072.16;4867441;29;19932;-70
2023/11/03 09:35:58;;;;;;;;;;;;;;;7.01;55.61;100072.97;4871188;29;20317;-69
2023/11/03 09:38:24;;;;;;;;;;;;;;;7.09;55.85;100076.50;4871655;29;19932;-70
2023/11/03 09:40:50;;;;;;;;;;;;;;;7.23;55.75;100072.31;4869617;29;20272;-71
2023/11/03 09:43:16;;;;;;;;;;;;;;;7.30;55.52;100075.81;4857600;29;19934;-70
2023/11/03 09:45:42;;;;;;;;;;;;;;;7.36;55.28;100073.28;4853851;29;19996;-69
2023/11/03 09:48:08;;;;;;;;;;;;;;;7.29;54.95;100075.81;4853434;29;20339;-71
2023/11/03 09:50:35;;;;;;;;;;;;;;;7.12;54.84;100073.94;4869821;29;19928;-70
2023/11/03 09:53:01;;;;;;;;;;;;;;;7.02;55.03;100082.47;4853712;29;20298;-70
2023/11/03 09:55:29;;;;;;;;;;;;;;;6.96;55.20;100090.16;4853711;29;19934;-69
2023/11/03 09:57:57;;;;;;;;;;;;;;;6.97;55.53;100095.34;4854998;29;19928;-70
2023/11/03 10:00:23;;;;;;;;;;;;;;;6.98;55.33;100091.91;4853417;29;19993;-69
2023/11/03 10:02:49;;;;;;;;;;;;;;;7.06;55.59;100097.16;4854457;29;19928;-69
2023/11/03 10:05:16;;;;;;;;;;;;;;;7.19;55.70;100100.75;4872356;29;20474;-70
2023/11/03 10:07:52;;;;;;;;;;;;;;;7.20;55.14;100098.16;4854240;29;19928;-72
2023/11/03 10:10:18;;;;;;;;;;;;;;;7.14;54.96;100100.72;4855882;29;19928;-70
2023/11/03 10:12:44;;;;;;;;;;;;;;;7.12;55.06;100094.66;4840099;29;19931;-71
2023/11/03 10:15:12;;;;;;;;;;;;;;;7.10;54.99;100101.53;4854973;29;19927;-72
2023/11/03 10:17:38;;;;;;;;;;;;;;;7.15;55.33;100104.16;4872732;29;19928;-67
2023/11/03 10:20:06;;;;;;;;;;;;;;;7.15;54.68;100104.16;4857737;29;19946;-68
2023/11/03 10:22:31;;;;;;;;;;;;;;;7.19;54.97;100104.19;4858333;29;19923;-67
2023/11/03 10:24:58;;;;;;;;;;;;;;;7.18;55.13;100114.53;4875874;29;20628;-66
2023/11/03 10:27:29;;;;;;;;;;;;;;;7.25;55.01;100113.75;4859133;29;19931;-68
2023/11/03 10:29:57;;;;;;;;;;;;;;;7.33;54.86;100121.59;4874910;29;19923;-68
2023/11/03 10:32:22;;;;;;;;;;;;;;;7.24;54.45;100123.22;4875414;29;19931;-70
2023/11/03 10:34:49;;;;;;;;;;;;;;;7.11;54.60;100123.09;4862931;29;19985;-69
2023/11/03 10:37:15;;;;;;;;;;;;;;;7.00;54.69;100121.28;4859357;29;19962;-67
2023/11/03 10:39:41;;;;;;;;;;;;;;;7.05;54.72;100121.31;4858098;29;19939;-67
2023/11/03 10:42:07;;;;;;;;;;;;;;;7.11;54.72;100123.09;4873452;29;19924;-69
2023/11/03 10:44:34;;;;;;;;;;;;;;;7.21;54.88;100115.44;4863032;29;20413;-71
2023/11/03 10:47:07;;;;;;;;;;;;;;;7.32;54.87;100117.28;4859138;29;19931;-72
2023/11/03 10:49:36;;;;;;;;;;;;;;;7.51;55.17;100113.09;4859451;29;19924;-71
2023/11/03 10:52:07;;;;;;;;;;;;;;;7.65;54.54;100115.81;4874862;29;19935;-71
2023/11/03 10:54:36;;;;;;;;;;;;;;;7.73;54.46;100121.06;4876195;29;20967;-72
2023/11/03 10:57:05;;;;;;;;;;;;;;;7.59;53.93;100126.16;4872451;29;20052;-71
2023/11/03 10:59:32;;;;;;;;;;;;;;;7.56;54.41;100131.31;4873856;29;19927;-72
2023/11/03 11:02:00;;;;;;;;;;;;;;;7.55;54.46;100130.41;4857220;29;19927;-73
2023/11/03 11:04:37;;;;;;;;;;;;;;;7.37;53.14;100134.56;4873462;29;20014;-72
2023/11/03 11:07:10;;;;;;;;;;;;;;;7.20;54.25;100137.00;4875663;29;20005;-74
2023/11/03 11:09:45;;;;;;;;;;;;;;;7.11;54.22;100136.91;4873590;29;20334;-71
2023/11/03 11:12:13;;;;;;;;;;;;;;;6.99;54.21;100129.00;4857012;29;19924;-70
2023/11/03 11:14:39;;;;;;;;;;;;;;;6.92;54.42;100120.31;4875589;29;19931;-70
2023/11/03 11:17:09;;;;;;;;;;;;;;;6.89;54.48;100112.50;4843330;29;19923;-75
2023/11/03 11:19:42;;;;;;;;;;;;;;;6.86;55.07;100115.94;4850100;29;19959;-68
2023/11/03 11:22:15;;;;;;;;;;;;;;;6.85;54.87;100121.97;4857577;29;20026;-69
2023/11/03 11:24:46;;;;;;;;;;;;;;;6.82;54.49;100132.28;4875180;29;19923;-71
2023/11/03 11:27:17;;;;;;;;;;;;;;;6.80;54.81;100133.97;4858417;29;20064;-71
2023/11/03 11:30:10;;;;;;;;;;;;;;;6.86;54.86;100134.03;4872871;29;20433;-72
2023/11/03 11:32:38;;;;;;;;;;;;;;;7.00;54.74;100139.38;4857056;29;19939;-69
2023/11/03 11:35:08;;;;;;;;;;;;;;;7.05;54.48;100142.91;4850083;29;19947;-70
2023/11/03 11:37:37;;;;;;;;;;;;;;;7.12;54.48;100136.06;4858037;29;19923;-73
2023/11/03 11:40:07;;;;;;;;;;;;;;;7.20;54.92;100133.53;4873807;29;19923;-71
2023/11/03 11:42:49;;;;;;;;;;;;;;;7.24;54.54;100140.50;4857365;29;19924;-70
2023/11/03 11:45:15;;;;;;;;;;;;;;;7.23;54.66;100138.75;4842729;29;19924;-76
2023/11/03 11:47:46;;;;;;;;;;;;;;;7.17;54.34;100131.78;4843029;29;19927;-74
2023/11/03 11:50:14;;;;;;;;;;;;;;;7.13;54.28;100121.38;4875704;29;19924;-73
2023/11/03 11:52:41;;;;;;;;;;;;;;;7.02;54.33;100134.22;4841531;29;19923;-72
2023/11/03 11:55:09;;;;;;;;;;;;;;;6.90;54.19;100135.81;4843142;29;20351;-73
2023/11/03 11:57:40;;;;;;;;;;;;;;;6.83;54.59;100136.59;4874601;29;19932;-72
2023/11/03 12:00:12;;;;;;;;;;;;;;;6.91;54.89;100136.69;4874802;29;19995;-73
2023/11/03 12:02:39;;;;;;;;;;;;;;;6.93;54.85;100146.22;4856931;29;19928;-69
2023/11/03 12:05:07;;;;;;;;;;;;;;;6.99;54.48;100149.69;4872250;29;19935;-74
2023/11/03 12:07:36;;;;;;;;;;;;;;;6.92;54.74;100153.94;4874637;29;19967;-72
2023/11/03 12:10:03;;;;;;;;;;;;;;;6.89;54.10;100149.59;4875150;29;20021;-71
2023/11/03 12:12:31;;;;;;;;;;;;;;;6.97;54.60;100149.69;4842981;29;19927;-76
2023/11/03 12:15:00;;;;;;;;;;;;;;;6.91;54.95;100154.78;4857696;29;20346;-69
2023/11/03 12:17:26;;;;;;;;;;;;;;;7.03;55.07;100156.66;4866282;29;19924;-77
2023/11/03 12:19:52;;;;;;;;;;;;;;;7.14;54.87;100152.47;4876477;29;19924;-75
2023/11/03 12:22:21;;;;;;;;;;;;;;;7.12;54.51;100143.81;4855211;29;19924;-73
2023/11/03 12:24:50;;;;;;;;;;;;;;;6.87;54.40;100142.66;4858546;29;20283;-72
2023/11/03 12:27:19;;;;;;;;;;;;;;;6.86;54.84;100144.41;4856718;29;19931;-76
2023/11/03 12:29:45;;;;;;;;;;;;;;;6.79;54.59;100145.16;4856520;29;19923;-75
2023/11/03 12:32:11;;;;;;;;;;;;;;;6.74;55.02;100149.41;4873912;29;19939;-76
2023/11/03 12:34:42;;;;;;;;;;;;;;;6.70;54.98;100151.09;4869646;29;20027;-71
2023/11/03 12:37:09;;;;;;;;;;;;;;;6.62;55.38;100151.00;4861429;29;19928;-73
2023/11/03 12:39:51;;;;;;;;;;;;;;;6.64;55.37;100143.25;4856903;29;19923;-72
2023/11/03 12:42:18;;;;;;;;;;;;;;;6.52;55.62;100154.31;4872074;29;19927;-72
2023/11/03 12:44:49;;;;;;;;;;;;;;;6.38;55.62;100151.56;4857006;29;19953;-75
2023/11/03 12:47:41;;;;;;;;;;;;;;;6.40;55.89;100148.97;4856730;29;19983;-77
2023/11/03 12:50:09;;;;;;;;;;;;;;;6.21;55.20;100143.56;4843214;29;19927;-75
2023/11/03 12:52:36;;;;;;;;;;;;;;;6.13;55.71;100147.72;4856854;29;19930;-78